Valley City, Missouri
Current Conditions -  °F | °C
As of 1:58 PM on Tuesday 25 Nov 2014 (Local Time) from KSZL Reporting Station
Clear Clear  
Wind Chill: 38°   Ceiling: Unl
Heat Index: 41°   Visibility: 10mi
Dew Point: 12°   Wind: 5mph
Humidity: 31%   Direction: 240°WSW
Pressure: 30.14"   Gusts: NA
Location:  38.673°N, 93.5632°W
Report Text: KSZL 251958Z AUTO 24004KT 10SM CLR 05/M11 A3014 RMK AO2 SLP216 T00491110 $
Loading
Personal Weather Stations






























Interactive Weather Map New forecast layout! Learn more

10-Day Weather Forecast

Advertisements
Track Severe Weather on mobile